Time,TemperatureF,DewpointF,PressureIn,WindDirection,WindDirectionDegrees,WindSpeedMPH,WindSpeedGustMPH,Humidity,HourlyPrecipIn,Conditions,Clouds,dailyrainin,SolarRadiationWatts/m^2,SoftwareType,DateUTC
2013-09-12 00:00:00,50.0,49.0,-100.00,NE,36,2.0,3.0,96,-99.99,,,-99.99,0.000000,,2013-09-12 06:00:00,
2013-09-12 00:52:00,50.0,49.0,-100.00,NE,36,2.0,3.0,96,-99.99,,,-99.99,0.000000,,2013-09-12 06:52:00,
2013-09-12 02:00:00,49.0,48.0,-100.00,NE,37,1.0,2.0,96,-99.99,,,-99.99,0.000000,,2013-09-12 08:00:00,
2013-09-12 02:52:00,49.0,48.0,-100.00,NE,37,1.0,2.0,96,-99.99,,,-99.99,0.000000,,2013-09-12 08:52:00,
2013-09-12 04:00:00,48.0,47.0,-100.00,NE,37,1.0,3.0,96,-99.99,,,-99.99,0.000000,,2013-09-12 10:00:00,
2013-09-12 04:53:00,48.0,47.0,-100.00,NE,37,1.0,3.0,96,-99.99,,,-99.99,0.000000,,2013-09-12 10:53:00,
2013-09-12 05:00:00,46.0,45.0,-100.00,NE,37,1.0,2.0,96,-99.99,,,0.01,0.000000,,2013-09-12 11:00:00,
2013-09-12 05:52:00,46.0,45.0,-100.00,NE,37,1.0,2.0,96,-99.99,,,0.01,0.000000,,2013-09-12 11:52:00,
2013-09-12 06:00:00,47.0,46.0,-100.00,NE,40,1.0,2.0,97,-99.99,,,0.01,0.000000,,2013-09-12 12:00:00,
2013-09-12 06:52:00,47.0,46.0,-100.00,NE,40,1.0,2.0,97,-99.99,,,0.01,0.000000,,2013-09-12 12:52:00,
2013-09-12 07:00:00,48.0,48.0,-100.00,NE,39,0.0,3.0,98,-99.99,,,0.00,0.900000,,2013-09-12 13:00:00,
2013-09-12 07:52:00,48.0,48.0,-100.00,NE,39,0.0,3.0,98,-99.99,,,0.00,0.900000,,2013-09-12 13:52:00,
2013-09-12 08:00:00,49.0,48.0,-100.00,NNE,32,0.0,2.0,95,-99.99,,,0.00,26.600000,,2013-09-12 14:00:00,
2013-09-12 08:52:00,49.0,48.0,-100.00,NNE,32,0.0,2.0,95,-99.99,,,0.00,26.600000,,2013-09-12 14:52:00,
2013-09-12 09:00:00,50.0,48.0,-100.00,NNE,24,1.0,2.0,95,-99.99,,,0.00,49.200001,,2013-09-12 15:00:00,
2013-09-12 09:54:00,50.0,48.0,-100.00,NNE,24,1.0,2.0,95,-99.99,,,0.00,49.200001,,2013-09-12 15:54:00,
2013-09-12 10:00:00,53.0,51.0,-100.00,NNE,29,1.0,2.0,95,-99.99,,,0.00,140.399994,,2013-09-12 16:00:00,
2013-09-12 10:53:00,53.0,51.0,-100.00,NNE,29,1.0,2.0,95,-99.99,,,0.00,140.399994,,2013-09-12 16:53:00,
2013-09-12 11:00:00,53.0,50.0,-100.00,NE,35,0.0,2.0,90,-99.99,,,0.00,152.300003,,2013-09-12 17:00:00,
2013-09-12 11:54:00,53.0,50.0,-100.00,NE,35,0.0,2.0,90,-99.99,,,0.00,152.300003,,2013-09-12 17:54:00,
2013-09-12 15:00:00,53.0,51.0,-100.00,NE,52,1.0,3.0,92,-99.99,,,0.00,170.899994,,2013-09-12 21:00:00,
2013-09-12 15:54:00,53.0,51.0,-100.00,NE,52,1.0,3.0,92,-99.99,,,0.00,170.899994,,2013-09-12 21:54:00,
2013-09-12 16:00:00,53.0,51.0,-100.00,NNE,32,1.0,3.0,93,-99.99,,,0.00,116.900002,,2013-09-12 22:00:00,
2013-09-12 16:54:00,53.0,51.0,-100.00,NNE,32,1.0,3.0,93,-99.99,,,0.00,116.900002,,2013-09-12 22:54:00,
2013-09-12 17:00:00,52.0,50.0,-100.00,NE,36,1.0,3.0,93,-99.99,,,0.00,74.500000,,2013-09-12 23:00:00,
2013-09-12 17:53:00,52.0,50.0,-100.00,NE,36,1.0,3.0,93,-99.99,,,0.00,74.500000,,2013-09-12 23:53:00,